Port Clements, Canada
Current Conditions -  °F | °C
As of 10:00 AM on Friday 24 Oct 2014 (Local Time) from CYZP Reporting Station
Light Rain Light Rain  
Wind Chill: 42°   Ceiling: 4400
Heat Index: 48°   Visibility: 6mi
Dew Point: 43°   Wind: 18mph
Humidity: 82%   Direction: 140°SE
Pressure: 29.8"   Gusts: 26mph
Location:  53.68°N, 132.17°W
Report Text: CYZP 241700Z AUTO 14016G23KT 6SM -RA BKN044 BKN050 OVC060 09/06 A2980 RMK SLP091
Loading
Personal Weather Stations






























Interactive Weather Map New forecast layout! Learn more

10-Day Weather Forecast

Advertisements
Track Severe Weather on mobile